Time;durP1;ratioP1;P1;durP2;ratioP2;P2;SDS_P1;SDS_P2;PMS_P1;PMS_P2;Temp;Humidity;BMP_temperature;BMP_pressure;BME280_temperature;BME280_humidity;BME280_pressure;Samples;Min_cycle;Max_cycle;Signal;HPM_P1;HPM_P2
2023/03/29 00:00:13;;;;;;;2.05;0.80;;;;;;;20.89;34.16;101650.63;5048043;28;20038;-73
2023/03/29 00:02:40;;;;;;;0.73;0.68;;;;;;;20.88;34.02;101659.75;5059231;28;20052;-73
2023/03/29 00:05:05;;;;;;;2.88;1.00;;;;;;;20.86;34.48;101648.28;5050724;28;20124;-73
2023/03/29 00:07:34;;;;;;;1.00;0.73;;;;;;;20.83;34.26;101640.50;5058334;28;20053;-73
2023/03/29 00:10:00;;;;;;;1.23;0.85;;;;;;;20.80;34.38;101638.09;5061333;28;20025;-73
2023/03/29 00:12:26;;;;;;;1.17;0.60;;;;;;;20.59;34.25;101605.25;5072765;28;20250;-74
2023/03/29 00:14:51;;;;;;;1.48;0.70;;;;;;;20.77;34.15;101629.47;5063238;28;20029;-73
2023/03/29 00:17:17;;;;;;;1.00;0.80;;;;;;;20.75;34.54;101624.25;5050474;28;20029;-72
2023/03/29 00:19:46;;;;;;;1.20;0.80;;;;;;;20.73;34.20;101626.28;5050647;28;20079;-72
2023/03/29 00:22:12;;;;;;;1.55;0.90;;;;;;;20.55;34.65;101603.91;5061365;28;20104;-73
2023/03/29 00:24:37;;;;;;;1.30;0.85;;;;;;;20.70;34.72;101623.91;5055498;28;20028;-73
2023/03/29 00:27:03;;;;;;;1.63;1.17;;;;;;;20.69;34.72;101619.50;5049744;28;20032;-73
2023/03/29 00:29:28;;;;;;;2.92;1.00;;;;;;;20.44;34.58;101578.00;5057101;28;20025;-73
2023/03/29 00:31:54;;;;;;;0.90;0.70;;;;;;;20.65;34.44;101615.44;5063588;28;20028;-73
2023/03/29 00:34:21;;;;;;;1.55;1.00;;;;;;;20.63;34.66;101615.56;5062393;28;20043;-73
2023/03/29 00:36:49;;;;;;;2.08;0.90;;;;;;;20.62;34.46;101618.47;5049252;28;20061;-73
2023/03/29 00:39:25;;;;;;;2.63;0.90;;;;;;;20.34;34.50;101569.16;5060986;28;20089;-74
2023/03/29 00:41:50;;;;;;;1.25;0.90;;;;;;;20.60;34.38;101601.53;5061492;28;20684;-74
2023/03/29 00:44:58;;;;;;;0.93;0.70;;;;;;;19.94;34.58;101486.97;5052202;28;20100;-74
2023/03/29 00:47:33;;;;;;;1.50;0.90;;;;;;;20.57;34.76;101600.03;5050131;28;20060;-73
2023/03/29 00:50:07;;;;;;;1.02;0.70;;;;;;;20.56;34.81;101592.94;5058297;28;20017;-73
2023/03/29 00:52:34;;;;;;;1.15;0.60;;;;;;;20.55;34.67;101599.34;5056460;28;20111;-73
2023/03/29 00:55:04;;;;;;;1.35;0.90;;;;;;;20.43;34.67;101560.06;5069102;28;20103;-74
2023/03/29 00:57:29;;;;;;;1.50;0.75;;;;;;;20.36;34.60;101546.41;5065599;28;20059;-73
2023/03/29 00:59:55;;;;;;;1.77;1.00;;;;;;;20.34;34.91;101539.44;5058417;28;20037;-74
2023/03/29 01:02:21;;;;;;;1.05;0.95;;;;;;;20.49;34.98;101570.28;5049218;28;20045;-74
2023/03/29 01:05:30;;;;;;;1.00;0.70;;;;;;;20.36;34.54;101540.16;5048638;28;20029;-73
2023/03/29 01:08:02;;;;;;;0.93;0.82;;;;;;;20.46;34.63;101560.59;5049213;28;20045;-73
2023/03/29 01:10:35;;;;;;;1.65;0.93;;;;;;;20.45;35.04;101563.47;5053295;28;20040;-72
2023/03/29 01:13:05;;;;;;;1.58;1.10;;;;;;;20.44;34.98;101561.78;5053152;28;20088;-74
2023/03/29 01:15:32;;;;;;;1.85;1.00;;;;;;;20.41;34.82;101568.34;5065578;28;20087;-73
2023/03/29 01:18:00;;;;;;;1.85;1.20;;;;;;;20.36;34.72;101550.97;5070921;28;20524;-74
2023/03/29 01:20:42;;;;;;;1.30;0.88;;;;;;;20.32;35.18;101534.22;5050761;28;20136;-73
2023/03/29 01:23:14;;;;;;;1.50;1.00;;;;;;;20.37;34.83;101539.97;5053717;28;20045;-73
2023/03/29 01:25:50;;;;;;;1.35;1.05;;;;;;;20.35;35.03;101533.91;5053411;28;20036;-74
2023/03/29 01:28:23;;;;;;;1.73;0.80;;;;;;;20.13;34.78;101505.59;5069027;28;20050;-73
2023/03/29 01:31:08;;;;;;;2.35;0.90;;;;;;;20.32;35.00;101538.78;5065429;28;20032;-74
2023/03/29 01:33:38;;;;;;;1.30;0.85;;;;;;;19.85;34.49;101450.19;5065990;28;20036;-72
2023/03/29 01:36:11;;;;;;;2.25;0.98;;;;;;;20.29;34.89;101520.19;5061956;28;20024;-74
2023/03/29 01:38:48;;;;;;;1.70;1.20;;;;;;;20.27;35.25;101527.63;5065546;28;20549;-74
2023/03/29 01:41:14;;;;;;;1.80;1.17;;;;;;;19.85;34.79;101448.31;5060311;28;20021;-73
2023/03/29 01:43:44;;;;;;;1.67;1.05;;;;;;;20.23;34.96;101530.66;5048107;28;20033;-74
2023/03/29 01:46:30;;;;;;;1.63;0.75;;;;;;;20.22;34.89;101528.97;5066812;28;20033;-74
2023/03/29 01:48:58;;;;;;;1.73;0.98;;;;;;;19.85;34.86;101455.56;5064786;28;20056;-73
2023/03/29 01:51:36;;;;;;;1.05;0.85;;;;;;;20.18;35.25;101514.09;5055733;28;20064;-72
2023/03/29 01:54:06;;;;;;;1.52;0.90;;;;;;;19.95;35.04;101481.41;5057182;28;20029;-73
2023/03/29 01:56:35;;;;;;;1.52;1.13;;;;;;;20.04;35.27;101497.66;5064726;28;20096;-73
2023/03/29 01:59:02;;;;;;;;;;;;;;;20.16;35.06;101508.00;5070160;28;20040;-73
2023/03/29 02:01:32;;;;;;;2.25;0.93;;;;;;;20.15;35.04;101508.16;5048711;28;19936;-73
2023/03/29 02:04:02;;;;;;;1.60;1.13;;;;;;;20.15;35.30;101516.28;5060639;28;20031;-73
2023/03/29 02:06:29;;;;;;;1.02;0.90;;;;;;;20.14;35.08;101506.47;5064914;28;20020;-74
2023/03/29 02:08:54;;;;;;;1.88;1.00;;;;;;;20.11;35.34;101499.53;5068667;28;20095;-73
2023/03/29 02:11:22;;;;;;;1.20;0.70;;;;;;;20.11;35.19;101493.31;5058742;28;20028;-73
2023/03/29 02:13:47;;;;;;;1.75;0.95;;;;;;;20.09;35.33;101495.31;5062111;28;20029;-73
2023/03/29 02:16:13;;;;;;;0.82;0.80;;;;;;;19.85;35.09;101456.41;5052223;28;20588;-73
2023/03/29 02:18:41;;;;;;;1.63;1.05;;;;;;;20.05;35.01;101494.81;5060460;28;20804;-74
2023/03/29 02:21:07;;;;;;;1.10;0.80;;;;;;;20.05;35.05;101491.22;5047392;28;20028;-73
2023/03/29 02:23:37;;;;;;;2.10;0.98;;;;;;;20.04;35.42;101489.53;5062332;28;20112;-74
2023/03/29 02:26:05;;;;;;;2.42;0.88;;;;;;;20.02;35.36;101487.03;5055592;28;20013;-74
2023/03/29 02:28:32;;;;;;;1.70;1.08;;;;;;;19.90;35.17;101467.56;5051582;28;20021;-74
2023/03/29 02:31:03;;;;;;;2.15;1.08;;;;;;;20.01;35.23;101488.03;5045564;28;20032;-73
2023/03/29 02:33:42;;;;;;;2.67;0.98;;;;;;;20.01;35.22;101487.16;5051647;28;20053;-72
2023/03/29 02:36:43;;;;;;;1.23;1.13;;;;;;;19.99;35.47;101473.84;5056118;28;20037;-74
2023/03/29 02:39:14;;;;;;;0.80;0.80;;;;;;;19.98;35.44;101473.00;5050611;28;20120;-73
2023/03/29 02:41:41;;;;;;;1.25;0.88;;;;;;;19.82;35.46;101454.03;5046227;28;20021;-73
2023/03/29 02:44:09;;;;;;;1.70;1.02;;;;;;;19.96;35.50;101471.47;5053885;28;20039;-74
2023/03/29 02:46:36;;;;;;;1.73;1.05;;;;;;;19.95;35.56;101467.06;5053744;28;20043;-74
2023/03/29 02:49:04;;;;;;;1.63;1.00;;;;;;;19.80;35.25;101442.56;5041461;28;20021;-74
2023/03/29 02:51:31;;;;;;;1.02;0.93;;;;;;;19.71;35.25;101417.41;5052068;28;20028;-73
2023/03/29 02:54:11;;;;;;;0.95;0.80;;;;;;;19.93;35.03;101467.25;5052333;28;20037;-73
2023/03/29 02:56:46;;;;;;;1.27;1.10;;;;;;;19.93;35.35;101464.56;5050079;28;20069;-73
2023/03/29 02:59:12;;;;;;;2.70;1.15;;;;;;;19.85;35.16;101444.78;5051161;28;20021;-73
2023/03/29 03:01:38;;;;;;;1.33;1.05;;;;;;;19.94;35.24;101449.19;5034585;28;20024;-73
2023/03/29 03:04:03;;;;;;;0.93;0.82;;;;;;;19.92;35.40;101456.59;5059757;28;20021;-73
2023/03/29 03:06:29;;;;;;;1.40;1.00;;;;;;;19.95;35.13;101450.88;5048972;28;20052;-74
2023/03/29 03:08:54;;;;;;;1.20;0.95;;;;;;;19.88;35.28;101441.72;5048270;28;20133;-72
2023/03/29 03:11:20;;;;;;;1.88;1.20;;;;;;;19.68;34.98;101401.53;5050189;28;20060;-73
2023/03/29 03:13:45;;;;;;;1.35;0.90;;;;;;;19.93;35.37;101440.25;5051774;28;20063;-73
2023/03/29 03:16:10;;;;;;;1.65;1.00;;;;;;;19.64;35.49;101396.63;5046848;28;20025;-73
2023/03/29 03:18:36;;;;;;;1.05;0.88;;;;;;;19.76;35.30;101413.38;5048593;28;20029;-74
2023/03/29 03:21:03;;;;;;;1.00;0.90;;;;;;;19.71;35.15;101406.63;5051201;28;20021;-74
2023/03/29 03:23:29;;;;;;;1.05;0.80;;;;;;;19.85;35.18;101425.88;5048181;28;20029;-73
2023/03/29 03:25:55;;;;;;;1.42;0.82;;;;;;;19.88;35.34;101431.81;5045817;28;20034;-73
2023/03/29 03:28:21;;;;;;;0.80;0.73;;;;;;;19.89;35.23;101419.16;5046290;28;20034;-74
2023/03/29 03:30:49;;;;;;;1.10;0.88;;;;;;;19.80;35.51;101401.25;5049627;28;20078;-74
2023/03/29 03:33:15;;;;;;;1.25;0.70;;;;;;;19.92;35.61;101424.22;5048169;28;20040;-74
2023/03/29 03:35:41;;;;;;;1.35;1.05;;;;;;;19.92;35.26;101422.38;5054021;28;20029;-74
2023/03/29 03:38:07;;;;;;;2.15;1.00;;;;;;;19.91;35.44;101419.81;5061432;28;20061;-74
2023/03/29 03:40:33;;;;;;;1.33;0.98;;;;;;;19.90;35.20;101421.69;5051416;28;20056;-74
2023/03/29 03:42:58;;;;;;;1.35;1.00;;;;;;;19.91;35.28;101422.53;5051184;28;20029;-74
2023/03/29 03:45:23;;;;;;;1.10;0.90;;;;;;;19.68;35.33;101376.41;5051151;28;20068;-74
2023/03/29 03:47:52;;;;;;;1.65;1.10;;;;;;;19.92;35.29;101408.03;5049343;28;20036;-74
2023/03/29 03:50:17;;;;;;;0.98;0.85;;;;;;;19.92;35.40;101418.81;5053855;28;20397;-74
2023/03/29 03:52:42;;;;;;;1.70;1.00;;;;;;;19.92;35.61;101408.03;5052624;28;20474;-73
2023/03/29 03:55:08;;;;;;;1.13;0.93;;;;;;;19.90;35.65;101404.66;5069566;28;20557;-74
2023/03/29 03:57:36;;;;;;;1.67;1.33;;;;;;;19.65;35.44;101366.78;5050653;28;20021;-74
2023/03/29 04:00:08;;;;;;;1.25;1.10;;;;;;;19.65;35.56;101371.31;5052886;28;20032;-74
2023/03/29 04:02:34;;;;;;;1.30;1.00;;;;;;;19.90;35.65;101402.78;5069321;28;20537;-74
2023/03/29 04:05:02;;;;;;;0.93;0.82;;;;;;;19.91;35.30;101398.25;5053058;28;20028;-73
2023/03/29 04:07:27;;;;;;;1.02;0.80;;;;;;;19.74;35.34;101367.66;5050557;28;20045;-73
2023/03/29 04:09:52;;;;;;;2.15;1.10;;;;;;;19.75;35.47;101366.63;5049458;28;20075;-73
2023/03/29 04:12:18;;;;;;;1.80;1.05;;;;;;;19.91;35.52;101399.09;5056283;28;20124;-73
2023/03/29 04:14:43;;;;;;;1.98;1.10;;;;;;;19.69;35.32;101361.91;5062520;28;20035;-74
2023/03/29 04:17:09;;;;;;;0.80;0.80;;;;;;;19.91;35.20;101393.69;5050788;28;20049;-74
2023/03/29 04:19:35;;;;;;;1.40;1.00;;;;;;;19.92;35.37;101395.41;5051313;28;20029;-74
2023/03/29 04:22:00;;;;;;;0.85;0.80;;;;;;;19.93;35.45;101391.69;5058600;28;20055;-74
2023/03/29 04:24:25;;;;;;;0.80;0.80;;;;;;;19.80;35.50;101379.66;5040794;28;20056;-74
2023/03/29 04:26:51;;;;;;;1.92;1.20;;;;;;;19.94;35.18;101392.53;5051195;28;20025;-74
2023/03/29 04:29:16;;;;;;;0.95;0.70;;;;;;;19.90;35.60;101392.00;5055502;28;20057;-74
2023/03/29 04:31:41;;;;;;;1.90;1.02;;;;;;;19.68;35.37;101354.81;5056710;28;20115;-72
2023/03/29 04:34:07;;;;;;;4.03;1.02;;;;;;;19.96;35.42;101396.75;5052756;28;20032;-73
2023/03/29 04:36:32;;;;;;;1.65;1.05;;;;;;;19.96;35.26;101393.19;5050941;28;20531;-73
2023/03/29 04:39:00;;;;;;;0.98;0.90;;;;;;;19.97;35.49;101390.34;5060488;28;20033;-74
2023/03/29 04:41:26;;;;;;;1.50;1.05;;;;;;;19.97;35.22;101382.25;5056564;28;20033;-74
2023/03/29 04:43:52;;;;;;;1.67;1.00;;;;;;;19.98;35.04;101391.19;5060557;28;20033;-74
2023/03/29 04:46:17;;;;;;;0.93;0.82;;;;;;;19.97;35.32;101390.34;5052523;28;20037;-74
2023/03/29 04:48:42;;;;;;;1.00;0.90;;;;;;;19.98;35.32;101383.09;5059626;28;20028;-74
2023/03/29 04:51:08;;;;;;;1.95;0.93;;;;;;;19.98;35.07;101389.31;5054564;28;20037;-73
2023/03/29 04:53:33;;;;;;;1.00;0.77;;;;;;;19.75;35.29;101368.50;5051239;28;20056;-74
2023/03/29 04:55:59;;;;;;;9.48;1.73;;;;;;;19.72;35.14;101354.34;5056003;28;20047;-73
2023/03/29 04:58:25;;;;;;;1.13;1.02;;;;;;;20.04;35.40;101397.78;5056418;28;20034;-73
2023/03/29 05:00:54;;;;;;;2.08;0.93;;;;;;;19.82;35.39;101354.19;5052601;28;20094;-72
2023/03/29 05:03:20;;;;;;;2.80;0.93;;;;;;;19.97;35.36;101363.34;5058534;28;20513;-73
2023/03/29 05:05:46;;;;;;;2.72;0.77;;;;;;;19.89;35.65;101349.00;5055516;28;20037;-72
2023/03/29 05:08:11;;;;;;;2.53;1.10;;;;;;;20.11;35.34;101378.06;5050524;28;20055;-71
2023/03/29 05:10:36;;;;;;;1.45;1.00;;;;;;;19.54;35.13;101278.03;5051154;28;20037;-70
2023/03/29 05:13:02;;;;;;;0.90;0.70;;;;;;;20.13;35.28;101367.09;5049926;28;20040;-71
2023/03/29 05:15:30;;;;;;;2.90;1.10;;;;;;;20.15;35.44;101370.47;5053056;28;20090;-72
2023/03/29 05:17:55;;;;;;;1.13;0.70;;;;;;;20.04;35.55;101357.28;5053758;28;20040;-70
2023/03/29 05:20:21;;;;;;;0.98;0.90;;;;;;;20.15;35.53;101367.78;5048177;28;20041;-72
2023/03/29 05:22:47;;;;;;;1.20;1.00;;;;;;;19.80;35.39;101313.06;5050578;28;20033;-71
2023/03/29 05:25:12;;;;;;;1.75;0.85;;;;;;;19.95;35.78;101342.94;5053739;28;20041;-73
2023/03/29 05:27:38;;;;;;;1.80;1.08;;;;;;;20.19;35.42;101366.44;5051945;28;20033;-72
2023/03/29 05:30:03;;;;;;;2.15;0.90;;;;;;;20.19;35.85;101369.13;5057747;28;20025;-72
2023/03/29 05:32:29;;;;;;;2.15;1.13;;;;;;;19.67;35.94;101280.31;5046797;28;20032;-72
2023/03/29 05:34:54;;;;;;;1.73;1.00;;;;;;;20.21;35.98;101376.03;5053701;28;20372;-72
2023/03/29 05:37:19;;;;;;;1.30;0.95;;;;;;;20.22;35.69;101380.47;5049968;28;20037;-73
2023/03/29 05:39:45;;;;;;;1.30;1.10;;;;;;;20.23;35.98;101381.28;5050639;28;20036;-73
2023/03/29 05:42:14;;;;;;;1.60;0.90;;;;;;;20.25;36.00;101384.66;5050949;28;20101;-71
2023/03/29 05:44:40;;;;;;;2.28;1.02;;;;;;;20.25;35.95;101379.25;5051913;28;20043;-70
2023/03/29 05:47:06;;;;;;;1.60;0.90;;;;;;;19.66;36.21;101274.03;5047438;28;20025;-71
2023/03/29 05:49:31;;;;;;;2.08;1.08;;;;;;;20.26;36.20;101375.53;5056305;28;20063;-71
2023/03/29 05:51:57;;;;;;;3.10;1.20;;;;;;;20.16;35.98;101353.25;5049184;28;20033;-71
2023/03/29 05:54:23;;;;;;;2.45;1.10;;;;;;;20.31;36.04;101372.38;5050205;28;20046;-72
2023/03/29 05:56:48;;;;;;;1.63;0.98;;;;;;;20.30;35.79;101384.16;5053151;28;20037;-72
2023/03/29 05:59:14;;;;;;;1.08;0.90;;;;;;;20.31;35.91;101369.69;5055747;28;20027;-72
2023/03/29 06:01:40;;;;;;;1.45;0.77;;;;;;;20.32;35.92;101365.94;5048499;28;20037;-73
2023/03/29 06:04:05;;;;;;;3.00;1.10;;;;;;;20.15;36.07;101341.63;5049735;28;20650;-72
2023/03/29 06:06:31;;;;;;;1.40;0.95;;;;;;;20.09;35.91;101326.09;5050634;28;20089;-73
2023/03/29 06:08:56;;;;;;;1.40;0.90;;;;;;;20.13;36.12;101332.00;5050524;28;20084;-71
2023/03/29 06:11:23;;;;;;;1.10;0.63;;;;;;;20.36;36.03;101361.91;5051942;28;20037;-72
2023/03/29 06:13:48;;;;;;;1.95;1.27;;;;;;;20.11;35.94;101326.78;5054442;28;20067;-73
2023/03/29 06:16:13;;;;;;;1.38;0.75;;;;;;;20.29;36.30;101359.03;5054386;28;20029;-72
2023/03/29 06:18:39;;;;;;;1.65;1.10;;;;;;;20.38;36.40;101363.41;5050679;28;20029;-72
2023/03/29 06:21:06;;;;;;;0.98;0.90;;;;;;;20.31;36.05;101356.19;5061902;28;20086;-72
2023/03/29 06:23:32;;;;;;;2.13;1.00;;;;;;;20.40;36.08;101369.50;5048242;28;20040;-72
2023/03/29 06:25:58;;;;;;;3.63;1.73;;;;;;;20.32;35.99;101357.84;5059966;28;20025;-72
2023/03/29 06:28:24;;;;;;;1.30;1.00;;;;;;;20.34;36.01;101362.06;5065295;28;20084;-72
2023/03/29 06:30:50;;;;;;;1.70;0.90;;;;;;;20.20;36.17;101333.88;5049037;28;20056;-75
2023/03/29 06:33:15;;;;;;;2.05;0.82;;;;;;;20.42;36.38;101370.16;5050888;28;20028;-73
2023/03/29 06:35:46;;;;;;;1.40;0.98;;;;;;;20.17;36.12;101336.88;5052349;28;20025;-73
2023/03/29 06:38:12;;;;;;;1.38;1.10;;;;;;;20.36;36.00;101354.66;5048243;28;20021;-73
2023/03/29 06:40:38;;;;;;;1.73;1.17;;;;;;;20.31;35.92;101350.78;5047332;28;20029;-73
2023/03/29 06:43:04;;;;;;;1.58;0.95;;;;;;;20.45;36.05;101377.09;5056084;28;20108;-73
2023/03/29 06:45:35;;;;;;;3.03;1.15;;;;;;;20.47;36.24;101372.38;5053122;28;20028;-73
2023/03/29 06:48:02;;;;;;;1.55;0.80;;;;;;;20.41;35.92;101365.78;5063614;28;20021;-73
2023/03/29 06:50:27;;;;;;;1.67;0.82;;;;;;;20.43;35.92;101366.47;5051875;28;20081;-73
2023/03/29 06:52:52;;;;;;;1.75;1.00;;;;;;;20.34;36.15;101356.66;5058037;28;20036;-75
2023/03/29 06:55:19;;;;;;;1.80;1.00;;;;;;;20.51;36.09;101381.00;5051382;28;20040;-74
2023/03/29 06:57:44;;;;;;;1.77;0.93;;;;;;;20.51;36.20;101378.31;5050025;28;20034;-74
2023/03/29 07:00:15;;;;;;;1.40;0.90;;;;;;;20.17;35.79;101345.00;5056825;28;20043;-75
2023/03/29 07:02:41;;;;;;;1.70;0.82;;;;;;;20.51;35.62;101384.56;5055111;28;20047;-73
2023/03/29 07:05:10;;;;;;;1.60;1.08;;;;;;;20.21;35.58;101346.34;5058854;28;20033;-75
2023/03/29 07:08:14;;;;;;;2.50;1.00;;;;;;;20.47;35.92;101375.06;5044994;28;20042;-76
2023/03/29 07:10:33;;;;;;;1.50;0.98;;;;;;;20.53;36.09;101382.56;5055403;28;20124;-76
2023/03/29 07:12:59;;;;;;;1.63;0.85;;;;;;;20.49;35.66;101383.91;5053014;28;20036;-74
2023/03/29 07:15:26;;;;;;;2.25;1.10;;;;;;;20.55;35.86;101391.31;5055688;28;20025;-74
2023/03/29 07:17:51;;;;;;;1.67;0.93;;;;;;;20.57;35.94;101399.28;5058329;28;20025;-74
2023/03/29 07:20:16;;;;;;;1.10;0.73;;;;;;;20.57;35.64;101399.28;5058674;28;20091;-75
2023/03/29 07:22:43;;;;;;;1.58;1.20;;;;;;;20.25;35.86;101346.88;5042982;28;20032;-74
2023/03/29 07:25:11;;;;;;;3.05;1.00;;;;;;;20.59;35.80;101398.06;5049059;28;20041;-75
2023/03/29 07:27:37;;;;;;;1.30;0.82;;;;;;;20.59;35.61;101399.94;5067037;28;20246;-74
2023/03/29 07:30:07;;;;;;;1.02;0.90;;;;;;;20.59;35.84;101400.78;5058308;28;20028;-75
2023/03/29 07:32:32;;;;;;;1.65;0.80;;;;;;;20.51;35.96;101389.97;5053022;28;20052;-74
2023/03/29 07:34:58;;;;;;;2.00;0.90;;;;;;;20.44;35.81;101370.03;5068171;28;20021;-75
2023/03/29 07:37:23;;;;;;;1.50;0.70;;;;;;;20.62;35.66;101392.34;5064594;28;20037;-74
2023/03/29 07:39:49;;;;;;;2.25;1.10;;;;;;;20.62;35.68;101403.16;5056814;28;20021;-74
2023/03/29 07:42:15;;;;;;;1.70;1.10;;;;;;;20.26;35.86;101337.75;5067213;28;20036;-74
2023/03/29 07:44:40;;;;;;;1.10;0.80;;;;;;;20.66;35.36;101398.25;5055202;28;20171;-74
2023/03/29 07:47:05;;;;;;;1.02;0.80;;;;;;;20.39;35.52;101348.91;5049646;28;20029;-75
2023/03/29 07:49:31;;;;;;;1.33;0.95;;;;;;;20.52;35.63;101363.78;5052487;28;20125;-74
2023/03/29 07:51:56;;;;;;;1.42;0.98;;;;;;;20.45;35.31;101353.63;5048549;28;20098;-74
2023/03/29 07:54:21;;;;;;;1.55;1.02;;;;;;;20.65;35.76;101383.91;5054177;28;20078;-74
2023/03/29 07:56:47;;;;;;;3.30;0.90;;;;;;;20.74;35.41;101400.13;5065895;28;20025;-75
2023/03/29 07:59:12;;;;;;;1.25;0.93;;;;;;;20.33;35.75;101321.72;5051700;28;20129;-74
2023/03/29 08:01:41;;;;;;;3.08;1.33;;;;;;;20.36;35.20;101343.00;5051284;28;20027;-74
2023/03/29 08:04:06;;;;;;;1.90;1.00;;;;;;;20.47;35.05;101348.94;5066659;28;20059;-75
2023/03/29 08:06:32;;;;;;;1.67;1.02;;;;;;;20.75;35.54;101391.84;5051202;28;20642;-74
2023/03/29 08:08:58;;;;;;;1.95;0.90;;;;;;;20.77;35.29;101394.34;5049354;28;20130;-75
2023/03/29 08:11:23;;;;;;;1.20;0.88;;;;;;;20.56;35.39;101349.81;5053606;28;20025;-73
2023/03/29 08:13:50;;;;;;;1.00;0.70;;;;;;;20.79;34.99;101385.09;5052694;28;20040;-75
2023/03/29 08:16:15;;;;;;;1.60;1.20;;;;;;;20.86;35.06;101399.63;5055516;28;20540;-75
2023/03/29 08:18:41;;;;;;;1.45;0.90;;;;;;;20.63;35.33;101361.59;5047810;28;20026;-74
2023/03/29 08:21:07;;;;;;;2.13;0.95;;;;;;;20.92;35.21;101403.50;5055974;28;20032;-75
2023/03/29 08:23:32;;;;;;;1.42;0.93;;;;;;;20.60;35.30;101352.97;5051774;28;20036;-74
2023/03/29 08:25:58;;;;;;;1.30;0.82;;;;;;;20.94;35.32;101399.63;5057580;28;20022;-74
2023/03/29 08:28:23;;;;;;;2.58;1.45;;;;;;;20.69;35.11;101360.09;5062712;28;20025;-74
2023/03/29 08:30:48;;;;;;;1.58;1.10;;;;;;;20.70;35.01;101353.69;5055476;28;20028;-75
2023/03/29 08:33:14;;;;;;;1.42;0.88;;;;;;;20.94;35.11;101390.63;5050529;28;20462;-75
2023/03/29 08:35:40;;;;;;;1.73;0.93;;;;;;;21.02;34.90;101408.72;5050679;28;20037;-75
2023/03/29 08:38:05;;;;;;;1.30;0.82;;;;;;;20.79;34.98;101360.75;5061861;28;20036;-74
2023/03/29 08:40:30;;;;;;;2.05;0.93;;;;;;;21.04;34.88;101390.47;5055439;28;20044;-74
2023/03/29 08:43:19;;;;;;;0.82;0.65;;;;;;;20.89;35.05;101352.47;5063556;28;20744;-74
2023/03/29 08:45:51;;;;;;;1.55;0.80;;;;;;;21.06;34.87;101383.03;5055960;28;20052;-75
2023/03/29 08:48:35;;;;;;;1.02;0.90;;;;;;;21.09;34.85;101378.13;5062056;28;20033;-75
2023/03/29 08:51:04;;;;;;;1.80;1.05;;;;;;;21.06;35.11;101366.81;5057230;28;20029;-75
2023/03/29 08:53:38;;;;;;;;;;;;;;;21.11;35.09;101373.41;5061908;28;20029;-74
2023/03/29 08:56:08;;;;;;;2.25;1.00;;;;;;;21.15;34.72;101379.28;5077719;28;19912;-75
2023/03/29 08:58:35;;;;;;;1.02;0.80;;;;;;;21.15;35.13;101371.16;5054730;28;20025;-74
2023/03/29 09:01:04;;;;;;;2.83;0.90;;;;;;;21.10;35.10;101369.00;5061538;28;20022;-74
2023/03/29 09:03:37;;;;;;;1.42;0.90;;;;;;;21.16;35.05;101372.88;5049571;28;20028;-75
2023/03/29 09:06:08;;;;;;;1.00;0.70;;;;;;;20.95;34.77;101328.31;5059310;28;20119;-74
2023/03/29 09:08:39;;;;;;;2.00;1.10;;;;;;;21.17;34.91;101356.47;5052856;28;20041;-74
2023/03/29 09:11:22;;;;;;;2.03;1.30;;;;;;;21.27;34.87;101377.91;5061559;28;20044;-75
2023/03/29 09:14:05;;;;;;;1.30;1.05;;;;;;;21.09;34.95;101340.28;5059479;28;20036;-74
2023/03/29 09:17:01;;;;;;;1.20;0.75;;;;;;;21.04;34.98;101339.09;5054828;28;20029;-75
2023/03/29 09:19:45;;;;;;;3.08;0.80;;;;;;;21.35;34.83;101394.16;5055444;28;20068;-74
2023/03/29 09:22:30;;;;;;;1.85;0.93;;;;;;;21.30;34.62;101388.38;5060028;28;20022;-74
2023/03/29 09:25:07;;;;;;;1.85;1.20;;;;;;;21.38;34.87;101395.69;5055928;28;20025;-75
2023/03/29 09:27:58;;;;;;;1.65;0.93;;;;;;;21.37;34.86;101384.03;5060780;28;20032;-75
2023/03/29 09:30:40;;;;;;;2.17;1.08;;;;;;;21.44;34.47;101384.16;5052659;28;20021;-74
2023/03/29 09:33:20;;;;;;;0.98;0.80;;;;;;;21.46;34.80;101387.53;5062613;28;20033;-75
2023/03/29 09:36:08;;;;;;;1.42;0.90;;;;;;;21.02;34.50;101314.94;5052836;28;20032;-74
2023/03/29 09:38:36;;;;;;;1.45;0.93;;;;;;;21.26;34.53;101360.00;5048813;28;20078;-74
2023/03/29 09:41:06;;;;;;;1.73;0.90;;;;;;;21.49;34.51;101384.47;5044428;28;20045;-75
2023/03/29 09:43:35;;;;;;;1.60;0.88;;;;;;;21.52;34.80;101383.28;5068984;28;20052;-75
2023/03/29 09:46:09;;;;;;;1.02;0.70;;;;;;;21.38;34.70;101355.94;5047517;28;20038;-75
2023/03/29 09:48:37;;;;;;;1.27;1.05;;;;;;;21.40;34.57;101348.47;5065428;28;20386;-75
2023/03/29 09:51:04;;;;;;;1.52;0.90;;;;;;;21.22;34.81;101318.94;5064860;28;20085;-75
2023/03/29 09:53:29;;;;;;;1.00;0.60;;;;;;;21.53;34.50;101374.16;5053511;28;20108;-74
2023/03/29 09:55:55;;;;;;;1.50;0.80;;;;;;;21.52;34.55;101370.59;5061918;28;20040;-75
2023/03/29 09:58:29;;;;;;;1.48;1.02;;;;;;;21.36;34.37;101340.91;5052508;28;20067;-74
2023/03/29 10:00:59;;;;;;;1.15;0.75;;;;;;;21.55;35.04;101367.56;5050565;28;20021;-74
2023/03/29 10:03:29;;;;;;;2.33;1.10;;;;;;;21.65;34.31;101379.00;5066173;28;20031;-74
2023/03/29 10:05:57;;;;;;;0.80;0.75;;;;;;;21.53;34.65;101345.22;5049843;28;20057;-75
2023/03/29 10:08:39;;;;;;;1.77;1.13;;;;;;;21.66;34.41;101366.31;5049760;28;20037;-74
2023/03/29 10:11:22;;;;;;;1.75;0.95;;;;;;;21.44;34.54;101321.94;5059979;28;20021;-75
2023/03/29 10:13:50;;;;;;;2.92;1.33;;;;;;;21.25;34.55;101295.28;5045126;28;20032;-76
2023/03/29 10:16:22;;;;;;;2.58;0.93;;;;;;;21.58;34.95;101364.50;5069101;28;20029;-76
2023/03/29 10:18:49;;;;;;;1.75;0.93;;;;;;;21.49;34.81;101338.47;5064360;28;20040;-75
2023/03/29 10:21:15;;;;;;;1.52;0.90;;;;;;;21.46;35.13;101326.16;5049542;28;20085;-75
2023/03/29 10:23:41;;;;;;;2.08;1.17;;;;;;;21.62;34.82;101357.72;5065156;28;20029;-74
2023/03/29 10:26:24;;;;;;;1.48;0.88;;;;;;;21.41;35.41;101309.63;5054808;28;20023;-76
2023/03/29 10:28:52;;;;;;;1.45;1.00;;;;;;;21.67;35.06;101352.63;5056119;28;20028;-79
2023/03/29 10:31:19;;;;;;;1.98;1.23;;;;;;;21.42;35.20;101307.75;5054559;28;20028;-75
2023/03/29 10:33:50;;;;;;;1.17;1.00;;;;;;;21.70;35.23;101354.13;5069818;28;20036;-75
2023/03/29 10:36:15;;;;;;;2.40;1.10;;;;;;;21.63;35.11;101336.91;5054621;28;20021;-75
2023/03/29 10:38:41;;;;;;;1.63;1.10;;;;;;;21.56;35.33;101330.50;5053645;28;20041;-73
2023/03/29 10:41:10;;;;;;;2.28;0.95;;;;;;;21.69;35.75;101350.56;5048333;28;20041;-75
2023/03/29 10:43:49;;;;;;;2.17;0.90;;;;;;;21.42;35.52;101299.63;5053390;28;20059;-76
2023/03/29 10:46:30;;;;;;;1.95;1.25;;;;;;;21.73;35.57;101344.81;5064663;28;20037;-76
2023/03/29 10:48:58;;;;;;;1.77;1.10;;;;;;;21.74;36.05;101336.50;5050123;28;20045;-74
2023/03/29 10:51:26;;;;;;;3.57;1.50;;;;;;;21.75;35.96;101337.34;5071654;28;20021;-77
2023/03/29 10:53:52;;;;;;;1.60;1.13;;;;;;;21.76;35.81;101339.06;5052093;28;20085;-74
2023/03/29 10:56:40;;;;;;;2.08;1.02;;;;;;;21.52;36.04;101294.00;5047297;28;20048;-74
2023/03/29 10:59:27;;;;;;;2.27;1.17;;;;;;;21.80;35.77;101337.69;5056473;28;20033;-77
2023/03/29 11:02:14;;;;;;;2.55;1.02;;;;;;;21.79;36.24;101339.53;5056722;28;20345;-74
2023/03/29 11:04:45;;;;;;;1.50;1.00;;;;;;;21.55;36.38;101297.22;5049373;28;20018;-76
2023/03/29 11:07:44;;;;;;;1.05;0.80;;;;;;;21.82;36.27;101332.91;5059910;28;20576;-77
2023/03/29 11:10:34;;;;;;;1.63;1.15;;;;;;;21.50;36.38;101285.22;5057906;28;20025;-83
2023/03/29 11:13:08;;;;;;;4.40;1.48;;;;;;;21.82;36.17;101333.75;5055425;28;20048;-76
2023/03/29 11:16:01;;;;;;;2.03;1.02;;;;;;;21.56;36.49;101290.75;5048797;28;20021;-77
2023/03/29 11:18:41;;;;;;;2.05;0.93;;;;;;;21.86;36.51;101336.97;5053874;28;20041;-76
2023/03/29 11:21:41;;;;;;;3.65;1.42;;;;;;;21.86;36.45;101339.66;5051889;28;20030;-75
2023/03/29 11:24:34;;;;;;;1.63;0.95;;;;;;;21.87;36.34;101338.63;5046576;28;20538;-76
2023/03/29 11:27:16;;;;;;;1.20;0.82;;;;;;;21.87;36.49;101331.34;5051718;28;20017;-79
2023/03/29 11:29:51;;;;;;;2.65;1.63;;;;;;;21.82;36.14;101311.25;5052690;28;20059;-79
2023/03/29 11:32:46;;;;;;;1.42;0.93;;;;;;;21.88;36.24;101322.22;5051121;28;20067;-77
2023/03/29 11:35:30;;;;;;;1.42;1.00;;;;;;;21.88;36.39;101326.81;5049476;28;20093;-78
2023/03/29 11:38:17;;;;;;;1.45;0.98;;;;;;;21.89;36.39;101321.22;5053556;28;20021;-76